Back to LoRa

* Repeater 13 "Summertime" *
Timestamp Temp: Hum: Node:
22:59 02-05-2026 23.13 48.13 166
16:11 02-05-2026 23.42 45.89 166
15:51 02-05-2026 35.08 27.93 35
15:48 02-05-2026 24.61 41.55 201
15:42 02-05-2026 23.19 45.86 166
15:37 02-05-2026 34.99 27.98 35
15:34 02-05-2026 35 27.96 35
15:31 02-05-2026 36.94 24.13 71
15:28 02-05-2026 37.44 23.68 71
15:26 02-05-2026 34.76 28.19 35
15:23 02-05-2026 24.29 43.28 201
15:14 02-05-2026 23.94 43.93 201
15:11 02-05-2026 23.79 43.96 201
14:49 02-05-2026 35.45 27.31 35
14:46 02-05-2026 22.72 45.84 166
14:37 02-05-2026 35.41 27.14 35
14:34 02-05-2026 22.63 45.83 166
14:32 02-05-2026 35.17 27.51 35
14:22 02-05-2026 22.52 45.8 166
14:17 02-05-2026 35.19 27.25 35
14:15 02-05-2026 35.01 27.56 35
14:09 02-05-2026 34.87 27.61 35
14:06 02-05-2026 34.71 27.81 35
14:04 02-05-2026 34.53 28.09 35
13:46 02-05-2026 32.54 30.55 35
13:43 02-05-2026 32 31.29 35
13:38 02-05-2026 22.15 45.78 166
13:35 02-05-2026 30.05 34.01 35
13:32 02-05-2026 22.09 45.76 166
13:29 02-05-2026 22.06 45.71 166
13:15 02-05-2026 25.7 41.3 35
13:13 02-05-2026 25.5 41.6 35
13:07 02-05-2026 23.15 42.14 201
13:05 02-05-2026 25.1 39.8 71
13:01 02-05-2026 23.55 41.58 201
12:53 02-05-2026 24.41 40.75 71
12:45 02-05-2026 21.74 45.64 166
12:42 02-05-2026 21.73 45.65 166
12:30 02-05-2026 25.5 41.25 35
12:21 02-05-2026 21.63 45.56 166
12:17 02-05-2026 26.04 40.25 35
12:11 02-05-2026 26.14 40.04 35
12:08 02-05-2026 26.06 40.18 35
12:00 02-05-2026 26.17 39.6 35
11:48 02-05-2026 26.33 39.21 35
11:46 02-05-2026 21.41 45.19 166
11:22 02-05-2026 21.37 45.09 166
11:01 02-05-2026 21.48 47.65 35
10:58 02-05-2026 21.45 47.65 35
10:50 02-05-2026 21.37 47.72 35
10:38 02-05-2026 21.31 45.16 166
10:36 02-05-2026 21.22 47.94 35
10:33 02-05-2026 21.19 48 35
10:19 02-05-2026 29.79 33.03 201
10:16 02-05-2026 29.98 33.13 201
10:11 02-05-2026 21.04 48.64 35
10:08 02-05-2026 21.02 48.82 35
09:56 02-05-2026 30.11 34.98 201
09:48 02-05-2026 21.3 45.75 166
09:45 02-05-2026 21.31 45.76 166
09:42 02-05-2026 21.31 45.78 166
09:39 02-05-2026 20.81 47.26 71
09:36 02-05-2026 21.31 45.8 166
09:27 02-05-2026 20.69 47.97 71
09:24 02-05-2026 20.68 51.37 35
09:21 02-05-2026 20.64 51.55 35
09:18 02-05-2026 29.51 37.84 201
09:15 02-05-2026 20.59 48.06 71
09:12 02-05-2026 20.58 51.67 35
09:10 02-05-2026 21.32 45.81 166
09:07 02-05-2026 20.52 52.69 35
08:58 02-05-2026 21.31 45.86 166
08:55 02-05-2026 21.29 45.83 166
08:52 02-05-2026 21.28 45.87 166
08:44 02-05-2026 28.49 43.13 201
08:41 02-05-2026 20.31 48.98 71
08:25 02-05-2026 20.29 54.35 35
08:23 02-05-2026 20.2 49.97 71
08:17 02-05-2026 21.3 45.77 166
08:14 02-05-2026 21.27 45.69 166
08:11 02-05-2026 21.29 45.7 166
08:05 02-05-2026 20.12 49.9 71
07:54 02-05-2026 20.1 54.29 35
07:40 02-05-2026 24.52 51.98 201
07:38 02-05-2026 20.08 53.32 35
07:35 02-05-2026 20.05 53.35 35
07:29 02-05-2026 21.31 45.38 166
07:26 02-05-2026 21.32 45.42 166
07:24 02-05-2026 20.03 54 35
07:15 02-05-2026 23.05 58.57 201
07:13 02-05-2026 20.02 53.93 35
06:59 02-05-2026 21.15 67.03 201
06:34 02-05-2026 16.22 89.71 201
06:31 02-05-2026 19.9 53.53 35
06:28 02-05-2026 19.86 53.52 35
06:25 02-05-2026 21.37 44.98 166
06:22 02-05-2026 21.36 45 166
06:17 02-05-2026 19.81 53.57 35
06:11 02-05-2026 19.84 53.68 35
06:08 02-05-2026 19.81 49.73 71
06:05 02-05-2026 19.82 49.68 71
06:03 02-05-2026 19.89 53.86 35
05:49 02-05-2026 19.89 53.26 35
05:43 02-05-2026 19.79 49.54 71
05:40 02-05-2026 19.77 49.56 71
05:37 02-05-2026 21.46 44.64 166
05:34 02-05-2026 21.46 44.57 166
05:31 02-05-2026 21.47 44.61 166
05:24 02-05-2026 19.92 52.82 35
05:21 02-05-2026 19.88 52.77 35
05:18 02-05-2026 19.86 52.77 35
05:13 02-05-2026 19.87 49.14 71
04:54 02-05-2026 19.96 49.36 71
04:51 02-05-2026 19.97 49.45 71
04:48 02-05-2026 20.03 52.61 35
04:45 02-05-2026 20 52.54 35
04:42 02-05-2026 19.98 52.43 35
04:39 02-05-2026 21.58 44.03 166
04:36 02-05-2026 21.59 44.01 166
04:33 02-05-2026 21.6 43.97 166
04:30 02-05-2026 20.01 48.55 71
04:20 02-05-2026 20.01 51.94 35
04:09 02-05-2026 21.65 43.66 166
04:05 02-05-2026 8.16 87.96 201
04:02 02-05-2026 8.29 88.31 201
03:59 02-05-2026 20.1 47.75 71
03:49 02-05-2026 20.12 50.57 35
03:32 02-05-2026 20.2 47.07 71
03:29 02-05-2026 20.09 49.9 35
03:27 02-05-2026 20.1 49.83 35
03:24 02-05-2026 20.09 49.84 35
03:18 02-05-2026 9.63 86.42 201
03:04 02-05-2026 20.13 49.62 35
03:01 02-05-2026 21.79 43.11 166
02:55 02-05-2026 21.81 43.1 166
02:52 02-05-2026 21.79 43.07 166
02:49 02-05-2026 21.79 43.04 166
02:45 02-05-2026 20.25 49.2 35
02:23 02-05-2026 21.86 42.84 166
02:20 02-05-2026 21.87 42.85 166
02:11 02-05-2026 21.87 42.76 166
02:08 02-05-2026 20.49 48.33 35
02:06 02-05-2026 9.27 76.96 201
02:03 02-05-2026 21.91 42.68 166
01:52 02-05-2026 20.57 47.91 35
01:46 02-05-2026 8.41 73.84 201
01:43 02-05-2026 20.56 47.77 35
01:30 02-05-2026 20.59 47.46 35
01:23 02-05-2026 20.63 45.03 71
01:12 02-05-2026 21.84 42.45 166
01:04 02-05-2026 20.6 47.08 35
01:01 02-05-2026 20.6 47.06 35
00:59 02-05-2026 7.4 69.84 201
00:53 02-05-2026 20.63 46.83 35
00:45 02-05-2026 20.61 46.84 35
00:39 02-05-2026 20.63 46.77 35
00:37 02-05-2026 7.35 65.25 201
00:31 02-05-2026 20.64 46.4 35
00:28 02-05-2026 20.63 44.21 71
00:14 02-05-2026 20.69 45.77 35
00:12 02-05-2026 8.48 61.14 201
00:09 02-05-2026 20.68 45.59 35
00:06 02-05-2026 20.68 45.62 35
00:03 02-05-2026 20.7 45.69 35
23:42 01-05-2026 20.78 43.39 71
23:32 01-05-2026 20.84 45.33 35
23:29 01-05-2026 21.97 41.87 166
23:18 01-05-2026 9.88 61.09 201
23:16 01-05-2026 20.95 45.42 35
23:10 01-05-2026 21 45.42 35
23:07 01-05-2026 21.03 45.49 35
23:05 01-05-2026 21.04 45.4 35
23:02 01-05-2026 21.06 45.31 35
22:59 01-05-2026 21.11 45.24 35
22:56 01-05-2026 22.06 41.98 166
22:53 01-05-2026 9.23 58.01 201
22:50 01-05-2026 9.35 58.02 201
22:47 01-05-2026 9.4 58.06 201
22:44 01-05-2026 21.15 43.48 71
22:42 01-05-2026 21.18 45.25 35
22:24 01-05-2026 22.16 42.01 166
22:17 01-05-2026 21.41 44.81 35
22:11 01-05-2026 21.45 44.79 35
22:03 01-05-2026 21.5 44.63 35
21:55 01-05-2026 21.61 44.35 35
21:49 01-05-2026 21.66 44.18 35
21:47 01-05-2026 8.13 52.32 201
21:43 01-05-2026 22.3 41.8 166
21:40 01-05-2026 22.29 41.79 166
21:32 01-05-2026 21.96 43.48 35
21:29 01-05-2026 22.04 43.28 35
21:04 01-05-2026 22.44 41.41 166
21:01 01-05-2026 22.46 41.4 166
20:42 01-05-2026 23.42 38.9 71
20:37 01-05-2026 24.01 38.72 35
20:34 01-05-2026 14.98 40.89 201
20:31 01-05-2026 24.19 38.29 35
20:28 01-05-2026 15.93 40.74 201
20:25 01-05-2026 24.37 37.97 35
20:20 01-05-2026 22.66 41.08 166
20:18 01-05-2026 22.7 41.15 166
20:14 01-05-2026 24.71 37.32 35
20:06 01-05-2026 24.95 36.82 35
20:03 01-05-2026 22.79 41.09 166
20:00 01-05-2026 22.81 41.12 166
19:57 01-05-2026 25.21 36.33 35
19:55 01-05-2026 25.33 36.17 35
19:50 01-05-2026 18.84 37.8 201
19:43 01-05-2026 25.12 35.38 71
19:41 01-05-2026 25.87 35.18 35
19:21 01-05-2026 23 41.17 166
19:18 01-05-2026 25.63 34.34 71
19:15 01-05-2026 22.31 31.16 201
19:12 01-05-2026 22.68 30.99 201
19:05 01-05-2026 22.93 30.79 201
18:59 01-05-2026 27.47 32.23 35
18:56 01-05-2026 27.57 32.06 35
18:54 01-05-2026 25.93 34.17 71
18:30 01-05-2026 23.81 28.41 201
18:28 01-05-2026 23.18 41.8 166
18:25 01-05-2026 29.96 28.83 35
18:21 01-05-2026 24.73 27.04 201
18:17 01-05-2026 30.53 28.42 35
17:59 01-05-2026 27.17 34.51 71
17:31 01-05-2026 25.23 28.51 201
17:26 01-05-2026 32.5 27.02 35
17:20 01-05-2026 23.03 42.35 166
17:02 01-05-2026 22.98 42.28 166
16:52 01-05-2026 23.76 31.76 201
16:49 01-05-2026 33.68 26.21 35
16:46 01-05-2026 33.73 26.03 35
16:44 01-05-2026 33.83 26.02 35
16:38 01-05-2026 33.91 25.87 35
16:35 01-05-2026 29.32 30.83 71
16:33 01-05-2026 22.88 42.23 166
16:26 01-05-2026 34.1 25.63 35
15:43 01-05-2026 22.58 42.16 166
15:35 01-05-2026 34.37 25.39 35
15:21 01-05-2026 37.86 21.22 71
15:19 01-05-2026 34.3 25.25 35
15:13 01-05-2026 34.32 25.11 35
15:10 01-05-2026 34.37 25.1 35
14:47 01-05-2026 22.18 41.73 166
14:44 01-05-2026 22.17 41.7 166
14:30 01-05-2026 34.67 25.55 35
14:17 01-05-2026 34.34 25.86 35
14:11 01-05-2026 34.15 26.26 35
13:59 01-05-2026 33.4 26.97 35
13:57 01-05-2026 22.05 39.17 166
13:37 01-05-2026 29.63 32.01 35
13:30 01-05-2026 21.54 32.72 201
13:27 01-05-2026 21.71 32.17 201
13:22 01-05-2026 24.18 33.14 166
13:19 01-05-2026 24.99 32.17 166
13:16 01-05-2026 25.88 36.82 71
13:04 01-05-2026 24.45 39.13 71
13:01 01-05-2026 23.31 30.64 201
12:49 01-05-2026 23.73 40.48 71
12:29 01-05-2026 24.16 30.78 201
12:26 01-05-2026 24.32 30.75 201
11:59 01-05-2026 23.93 42.84 35
11:56 01-05-2026 23.97 42.81 35
11:47 01-05-2026 21.69 43.93 71
11:22 01-05-2026 21.02 45.67 71
11:19 01-05-2026 20.89 45.91 71
17:10 27-04-2026 17.42 40.34 201
16:59 27-04-2026 24.59 44.92 35
16:54 27-04-2026 24.62 45.08 35
16:51 27-04-2026 24.61 45.6 35
16:42 27-04-2026 18.82 39.06 201
16:37 27-04-2026 24.49 46.24 35
16:22 27-04-2026 17.79 40.39 201
16:20 27-04-2026 24.27 46.25 35
16:16 27-04-2026 17.17 38.75 201
16:10 27-04-2026 16.92 39.77 201
16:06 27-04-2026 16.69 40.53 201
15:58 27-04-2026 23.59 47.3 35
15:56 27-04-2026 23.5 46.18 35
15:44 27-04-2026 16.1 38.06 201
15:41 27-04-2026 23.04 46.19 35
15:36 27-04-2026 22.94 46.12 35
15:33 27-04-2026 22.91 46.12 35
15:28 27-04-2026 22.86 46.08 35
15:26 27-04-2026 16.54 38.23 201
15:22 27-04-2026 16.71 37.99 201
15:03 27-04-2026 22.57 46.38 35
15:01 27-04-2026 22.54 46.39 35
14:55 27-04-2026 22.45 46.58 35
14:49 27-04-2026 22.39 46.66 35
14:41 27-04-2026 22.32 46.79 35
14:35 27-04-2026 16.13 40.5 201
14:25 27-04-2026 15.73 41.97 201
14:19 27-04-2026 22.17 46.9 35
14:16 27-04-2026 22.17 46.87 35
14:13 27-04-2026 14.73 43.81 201
14:05 27-04-2026 22.18 46.78 35
14:02 27-04-2026 22.18 46.79 35
14:00 27-04-2026 22.19 46.89 35
13:57 27-04-2026 22.17 46.93 35
13:48 27-04-2026 13.93 42.44 201
13:40 27-04-2026 21.97 47.31 35
13:31 27-04-2026 21.83 47.57 35
13:28 27-04-2026 14.1 40.4 201
13:03 27-04-2026 14.97 39.71 201
13:01 27-04-2026 21.4 48.96 35
12:56 27-04-2026 21.35 49.47 35
15:34 26-04-2026 22.38 46.34 35
00:46 24-04-2026 6.94 38.47 34
00:43 24-04-2026 6.98 38.45 34
00:18 24-04-2026 6.36 84.12 201
00:07 24-04-2026 21.31 52.27 35
00:04 24-04-2026 21.31 52.29 35
00:01 24-04-2026 7.51 38.15 34
23:58 23-04-2026 7.53 38.12 34
23:56 23-04-2026 21.33 52.21 35
23:50 23-04-2026 21.34 52.09 35
23:45 23-04-2026 21.37 51.97 35
23:42 23-04-2026 21.38 51.95 35
23:37 23-04-2026 7.83 37.97 34
23:33 23-04-2026 19.8 53.57 71
23:30 23-04-2026 19.83 53.5 71
23:28 23-04-2026 7.97 37.91 34
23:25 23-04-2026 21.44 52.02 35
23:23 23-04-2026 21.45 52.04 35
23:20 23-04-2026 21.45 52.01 35
23:14 23-04-2026 21.47 52 35
23:09 23-04-2026 7.55 75.62 201
23:00 23-04-2026 20.07 53.1 71
22:51 23-04-2026 20.13 52.93 71
22:46 23-04-2026 21.53 52.07 35
22:44 23-04-2026 7.33 72.14 201
22:41 23-04-2026 20.19 52.82 71
22:39 23-04-2026 8.62 37.57 34
22:27 23-04-2026 8.96 37.55 34
22:21 23-04-2026 9.12 37.51 34
22:18 23-04-2026 9.18 37.5 34
22:16 23-04-2026 8.14 69.62 201
22:13 23-04-2026 21.61 51.75 35
22:10 23-04-2026 20.33 52.3 71
22:00 23-04-2026 8.55 67.92 201
21:54 23-04-2026 21.71 51.34 35
21:48 23-04-2026 21.75 51.29 35
21:45 23-04-2026 9.97 37.33 34
21:39 23-04-2026 10.15 37.32 34
21:36 23-04-2026 10.23 37.3 34
21:33 23-04-2026 10.31 37.3 34
21:31 23-04-2026 20.82 51.01 71
21:26 23-04-2026 21.91 50.9 35
21:15 23-04-2026 10.9 37.26 34
21:12 23-04-2026 11.04 37.27 34
21:09 23-04-2026 11.21 37.28 34
20:50 23-04-2026 10.41 57.09 201
20:47 23-04-2026 22.21 50.73 35
20:38 23-04-2026 11.03 54.64 201
20:33 23-04-2026 22.24 47.77 71
20:30 23-04-2026 22.37 50.55 35
20:28 23-04-2026 11.52 52.46 201
20:25 23-04-2026 22.41 50.45 35
20:22 23-04-2026 22.44 50.4 35
20:18 23-04-2026 12.28 49.84 201
20:17 23-04-2026 22.5 50.29 35
20:14 23-04-2026 22.53 50.21 35
20:11 23-04-2026 22.57 50.16 35
20:08 23-04-2026 15.85 37.92 34
20:05 23-04-2026 23.74 44.63 71
19:59 23-04-2026 16.6 37.96 34
19:55 23-04-2026 22.74 49.86 35
19:52 23-04-2026 22.77 49.87 35
19:43 23-04-2026 22.85 49.87 35
19:40 23-04-2026 24.38 43.63 71
19:31 23-04-2026 16.81 43.61 201
19:26 23-04-2026 23.02 49.58 35
19:18 23-04-2026 23.1 49.5 35
19:07 23-04-2026 25.09 42.36 71
18:52 23-04-2026 25.26 42.19 71
18:47 23-04-2026 23.36 49.03 35
18:42 23-04-2026 25.36 42.1 71
18:36 23-04-2026 25.4 41.95 71
18:33 23-04-2026 25.45 41.74 71
18:25 23-04-2026 22.38 44.27 201
18:22 23-04-2026 22.41 43.83 201
18:19 23-04-2026 21.61 37.69 34
18:17 23-04-2026 23.67 48.34 35
18:14 23-04-2026 25.89 40.93 71
18:06 23-04-2026 26.07 40.68 71
18:03 23-04-2026 23.76 48.13 35
18:01 23-04-2026 22.74 37.7 34
17:55 23-04-2026 23.79 48.05 35
17:52 23-04-2026 23.52 37.74 34
17:43 23-04-2026 24.11 37.77 34
17:36 23-04-2026 23.84 48.07 35
17:21 23-04-2026 26.15 37.9 34
17:18 23-04-2026 26.48 37.94 34
17:15 23-04-2026 26.81 37.97 34
17:12 23-04-2026 27.22 38.02 34
17:07 23-04-2026 23.91 47.94 35
16:56 23-04-2026 21.77 46.76 201
16:48 23-04-2026 33.29 38.6 34
16:40 23-04-2026 23.93 47.9 35
16:34 23-04-2026 20.96 46.3 201
16:31 23-04-2026 20.97 46.9 201
16:29 23-04-2026 23.88 47.61 35
16:23 23-04-2026 23.84 47.52 35
16:20 23-04-2026 34.16 27.28 71
16:17 23-04-2026 35.99 38.81 34
16:14 23-04-2026 36.15 38.83 34
16:11 23-04-2026 36.22 38.84 34
16:08 23-04-2026 36.24 38.87 34
15:52 23-04-2026 23.58 47.68 35
15:49 23-04-2026 37.06 24 71
15:43 23-04-2026 36.9 24.19 71
15:41 23-04-2026 36.32 39.03 34
15:38 23-04-2026 23.44 48.06 35
15:33 23-04-2026 23.37 48.31 35
15:30 23-04-2026 18.75 48.59 201
15:29 23-04-2026 35.97 39.16 34
15:26 23-04-2026 35.98 39.16 34
15:22 23-04-2026 23.22 48.5 35
15:10 23-04-2026 35.25 39.19 34
15:07 23-04-2026 35.05 39.21 34
14:58 23-04-2026 34.75 39.21 34
14:53 23-04-2026 36.73 23.81 71
14:51 23-04-2026 22.72 48.4 35
14:40 23-04-2026 34.91 39.2 34
14:37 23-04-2026 22.55 48.74 35
14:20 23-04-2026 35.73 24.86 71
14:17 23-04-2026 35.7 24.98 71
14:11 23-04-2026 17.26 54.11 201
14:01 23-04-2026 35.24 25.22 71
13:58 23-04-2026 21.84 49.8 35
13:55 23-04-2026 35.52 24.87 71
13:45 23-04-2026 21.59 50.41 35
13:42 23-04-2026 21.53 50.63 35
13:36 23-04-2026 35.79 39.22 34
13:33 23-04-2026 35.96 39.23 34
13:30 23-04-2026 36.14 39.24 34
13:17 23-04-2026 21.1 51.06 35
13:08 23-04-2026 36.02 39.4 34
13:00 23-04-2026 23.52 42.38 71
12:52 23-04-2026 20.74 52 35
12:49 23-04-2026 20.71 52.13 35
12:43 23-04-2026 20.24 48.63 201
12:40 23-04-2026 20.28 48.7 201
12:33 23-04-2026 20.49 47.26 201
12:09 23-04-2026 20.26 53.91 35
11:58 23-04-2026 37.11 39.62 34
11:42 23-04-2026 19.98 54.32 35
11:36 23-04-2026 21.43 48.4 201
11:25 23-04-2026 19.85 54.25 35
11:17 23-04-2026 19.8 54 35
11:11 23-04-2026 19.74 53.7 35
11:06 23-04-2026 19.69 53.24 35
11:03 23-04-2026 19.67 53.09 35
10:52 23-04-2026 20.36 52.88 201
10:49 23-04-2026 19.57 52.85 35
10:46 23-04-2026 19.56 52.73 35
10:41 23-04-2026 19.51 52.21 35
10:38 23-04-2026 39.55 42.87 34
10:35 23-04-2026 19.47 51.7 35
10:31 23-04-2026 38.81 43.13 34
10:21 23-04-2026 19.44 51.7 35
10:19 23-04-2026 19.44 51.73 35
10:10 23-04-2026 19.42 51.76 35
10:07 23-04-2026 33.44 44.45 34
10:04 23-04-2026 32.66 44.55 34
10:01 23-04-2026 31.86 44.63 34
09:56 23-04-2026 19.41 51.79 35
09:54 23-04-2026 19.41 51.79 35
09:48 23-04-2026 19.4 51.84 35
09:43 23-04-2026 26.93 44.93 34
09:33 23-04-2026 19.87 61.01 201
09:25 23-04-2026 26.38 45.08 34
09:22 23-04-2026 26.26 45.11 34
09:18 23-04-2026 19.4 51.95 35
08:58 23-04-2026 17.78 53.47 71
08:27 23-04-2026 17.63 53.96 71
08:25 23-04-2026 19.36 52.17 35
08:20 23-04-2026 16.7 69.5 201
08:04 23-04-2026 15.49 69.95 201
07:57 23-04-2026 19.37 52.32 35
07:50 23-04-2026 17.48 54.61 71
07:35 23-04-2026 19.39 52.34 35
07:23 23-04-2026 17.42 54.91 71
07:17 23-04-2026 7.39 41.69 34
07:06 23-04-2026 19.42 52.36 35
06:53 23-04-2026 19.43 52.39 35
06:28 23-04-2026 17.25 55.71 71
06:20 23-04-2026 4.89 40.33 34
06:06 23-04-2026 19.54 52.26 35
05:57 23-04-2026 17.31 55.67 71
05:29 23-04-2026 4.5 39.6 34
05:19 23-04-2026 19.73 52.1 35
05:10 23-04-2026 4.47 39.42 34
05:01 23-04-2026 4.47 39.32 34
04:58 23-04-2026 4.46 39.28 34
04:43 23-04-2026 19.87 52.1 35
04:40 23-04-2026 19.87 52.1 35
04:25 23-04-2026 17.62 55.53 71
04:14 23-04-2026 19.94 52.13 35
04:12 23-04-2026 19.95 52.12 35